Flight Track Log - Related Links

Times and Time Zones

All times are in EDT time to prevent confusion due to time zone crossing. See the SWA868 flight status page for this flight to view local times or setup timezone preferences in your user account.


Time Position Orientation Groundspeed Altitude Reporting Facility
EDT Latitude Longitude Course Direction KTS MPH feet Rate Location/Type
Sat 12:26:49 PM 34.0528 -117.5750 64° Northeast 168 193 37,000  Level Los Angeles Center
Sat 12:27:51 PM 34.0028 -117.6003 203° Southwest 258 297 3,600 -15,097 Descending Los Angeles Center
Sat 12:28:53 PM 34.0364 -117.6797 297° West 270 311 5,800 1,597 Climbing Los Angeles Center
Sat 12:29:55 PM 34.0725 -117.7667 297° West 284 327 6,900 1,452 Climbing Los Angeles Center
Sat 12:30:57 PM 34.1267 -117.8414 311° West 299 344 8,800 1,984 Climbing Los Angeles Center
Sat 12:31:59 PM 34.1856 -117.9122 315° West 301 346 11,000 2,565 Climbing Los Angeles Center
Sat 12:32:00 PM 34.3371 -116.9316 64° Northeast  Level Estimated
Sat 12:33:01 PM 34.2869 -117.9611 338° Northwest 355 409 14,100  Level Los Angeles Center
Sat 12:34:03 PM 34.3481 -117.8725 50° Northeast 353 406 16,800 2,419 Climbing Los Angeles Center
Sat 12:35:05 PM 34.3981 -117.7689 60° Northeast 364 419 19,100 2,129 Climbing Los Angeles Center
Sat 12:36:07 PM 34.4511 -117.6597 59° Northeast 378 435 21,200 1,839 Climbing Los Angeles Center
Sat 12:37:09 PM 34.5064 -117.5422 60° Northeast 402 463 22,900 1,742 Climbing Los Angeles Center
Sat 12:38:11 PM 34.5647 -117.4206 60° Northeast 418 481 24,800 1,951 Climbing Los Angeles Center
Sat 12:39:12 PM 34.6508 -117.2814 53° Northeast 435 501 26,900 1,756 Climbing Los Angeles Center
Sat 12:40:14 PM 34.7292 -117.1675 50° Northeast 441 507 28,400 1,403 Climbing Los Angeles Center
Sat 12:41:16 PM 34.8097 -117.0500 50° Northeast 452 520 29,800 1,452 Climbing Los Angeles Center
Sat 12:42:18 PM 34.8922 -116.9300 50° Northeast 464 534 31,400 1,597 Climbing Los Angeles Center
Sat 12:43:20 PM 34.9736 -116.8117 50° Northeast 460 529 33,100 1,597 Climbing Los Angeles Center
Sat 12:44:22 PM 35.0700 -116.6689 50° Northeast 458 527 34,700 1,452 Climbing Los Angeles Center
Sat 12:45:24 PM 35.1506 -116.5525 50° Northeast 452 520 36,100 1,113 Climbing Los Angeles Center
Sat 12:46:26 PM 35.2300 -116.4350 50° Northeast 451 519 37,000 439 Climbing Los Angeles Center
Sat 12:47:27 PM 35.3111 -116.3161 50° Northeast 455 524 37,000  Level Los Angeles Center
Sat 12:48:29 PM 35.3897 -116.1969 51° Northeast 453 521 37,000  Level Los Angeles Center
Sat 12:49:31 PM 35.4686 -116.0775 51° Northeast 451 519 37,000  Level Los Angeles Center
Sat 12:50:33 PM 35.5569 -115.9253 54° Northeast 460 529 37,000  Level Los Angeles Center
Sat 12:51:35 PM 35.6044 -115.7972 65° Northeast 463 533 37,000  Level Los Angeles Center
Sat 12:52:37 PM 35.6681 -115.6275 65° Northeast 460 529 37,000  Level Los Angeles Center
Sat 12:53:39 PM 35.7203 -115.4875 65° Northeast 455 524 37,000  Level Los Angeles Center
Sat 12:54:40 PM 35.7725 -115.3461 65° Northeast 457 526 37,000  Level Los Angeles Center
Sat 12:55:42 PM 35.8231 -115.2075 66° East 450 518 37,000  Level Los Angeles Center
Sat 12:56:44 PM 35.8719 -115.0700 66° East 443 510 37,000  Level Los Angeles Center
Sat 12:57:46 PM 35.9239 -114.9303 65° Northeast 447 514 37,000  Level Los Angeles Center
Sat 12:58:48 PM 35.9850 -114.7619 66° East 449 517 37,000  Level Los Angeles Center
Sat 12:59:50 PM 36.0350 -114.6219 66° East 448 516 37,000  Level Los Angeles Center
Sat 01:00:52 PM 36.0850 -114.4822 66° East 447 514 37,000  Level Los Angeles Center
Sat 01:01:54 PM 36.1356 -114.3431 66° East 446 513 37,000  Level Los Angeles Center
Sat 01:02:55 PM 36.1861 -114.2017 66° East 448 516 37,000  Level Los Angeles Center
Sat 01:03:57 PM 36.2367 -114.0606 66° East 449 517 37,000  Level Los Angeles Center
Sat 01:04:59 PM 36.2964 -113.8892 67° East 451 519 37,000 -194 Level Los Angeles Center
Sat 01:06:01 PM 36.3467 -113.7461 66° East 453 521 36,600 -629 Descending Los Angeles Center
Sat 01:07:03 PM 36.3950 -113.6103 66° East 439 505 35,700 -774 Descending Los Angeles Center
Sat 01:08:05 PM 36.4408 -113.4783 67° East 426 490 35,000 -339 Descending Los Angeles Center
Sat 01:09:07 PM 36.4842 -113.3450 68° East 421 484 35,000  Level Los Angeles Center
Sat 01:10:09 PM 36.5333 -113.2139 65° Northeast 418 481 35,000  Level Los Angeles Center
Sat 01:11:11 PM 36.5881 -113.0589 66° East 414 476 35,000  Level Los Angeles Center
Sat 01:12:12 PM 36.6319 -112.9281 67° East 412 474 35,000  Level Los Angeles Center
Sat 01:13:14 PM 36.6756 -112.7961 68° East 413 475 35,000  Level Los Angeles Center
Sat 01:14:16 PM 36.7203 -112.6681 66° East 409 471 35,000  Level Los Angeles Center
Sat 01:15:18 PM 36.7647 -112.5372 67° East 410 472 35,000  Level Los Angeles Center
Sat 01:16:20 PM 36.8083 -112.4069 67° East 410 472 35,000  Level Los Angeles Center
Sat 01:17:22 PM 36.8617 -112.2489 67° East 413 475 35,000  Level Los Angeles Center
Sat 01:18:24 PM 36.9056 -112.1167 67° East 414 476 35,000  Level Los Angeles Center
Sat 01:19:26 PM 36.9503 -111.9819 67° East 419 482 35,000  Level Los Angeles Center
Sat 01:20:28 PM 36.9944 -111.8483 67° East 419 482 35,000  Level Los Angeles Center
Sat 01:21:30 PM 37.0389 -111.7150 67° East 418 481 35,000  Level Los Angeles Center
Sat 01:22:32 PM 37.0911 -111.5556 68° East 415 478 35,000  Level Los Angeles Center
Sat 01:23:35 PM 37.1353 -111.4225 67° East 416 479 35,000  Level Los Angeles Center
Sat 01:24:37 PM 37.1783 -111.2897 68° East 413 475 35,000  Level Los Angeles Center
Sat 01:25:44 PM 37.2275 -111.1311 69° East 409 471 35,000  Level Denver Center
Sat 01:26:46 PM 37.2700 -110.9981 68° East 413 475 35,000  Level Denver Center
Sat 01:27:48 PM 37.3125 -110.8658 68° East 410 472 35,000  Level Denver Center
Sat 01:28:50 PM 37.3553 -110.7319 68° East 413 475 35,000  Level Denver Center
Sat 01:29:52 PM 37.3981 -110.5964 68° East 419 482 35,000  Level Denver Center
Sat 01:30:54 PM 37.4400 -110.4617 69° East 415 478 35,000  Level Denver Center
Sat 01:31:56 PM 37.4914 -110.2989 68° East 420 483 35,000  Level Denver Center
Sat 01:32:58 PM 37.5322 -110.1678 69° East 419 482 35,000  Level Denver Center
Sat 01:34:00 PM 37.5797 -110.0144 69° East 419 482 35,000  Level Denver Center
Sat 01:35:02 PM 37.6211 -109.8825 68° East 422 486 35,000  Level Denver Center
Sat 01:36:04 PM 37.6617 -109.7508 69° East 420 483 35,000  Level Denver Center
Sat 01:37:06 PM 37.7092 -109.5967 69° East 421 484 35,000  Level Denver Center
Sat 01:38:07 PM 37.7492 -109.4636 69° East 423 487 35,000  Level Denver Center
Sat 01:39:09 PM 37.7967 -109.3067 69° East 426 490 35,000  Level Denver Center
Sat 01:40:11 PM 37.8369 -109.1708 69° East 430 495 35,000  Level Denver Center
Sat 01:41:13 PM 37.8844 -109.0153 69° East 424 488 35,000  Level Denver Center
Sat 01:42:15 PM 37.9244 -108.8767 70° East 435 501 35,000  Level Denver Center
Sat 01:43:17 PM 37.9717 -108.7239 69° East 422 486 35,000  Level Denver Center
Sat 01:44:19 PM 38.0122 -108.5881 69° East 424 488 35,000  Level Denver Center
Sat 01:45:21 PM 38.0522 -108.4486 70° East 434 499 35,000  Level Denver Center
Sat 01:46:23 PM 38.0994 -108.2839 70° East 440 506 35,000  Level Denver Center
Sat 01:47:25 PM 38.1389 -108.1458 70° East 437 503 35,000  Level Denver Center
Sat 01:48:27 PM 38.1847 -107.9861 70° East 433 498 35,000  Level Denver Center
Sat 01:49:29 PM 38.2178 -107.8442 73° East 436 502 35,000  Level Denver Center
Sat 01:50:31 PM 38.2522 -107.6800 75° East 434 499 35,000  Level Denver Center
Sat 01:51:33 PM 38.2822 -107.5394 75° East 433 498 35,000  Level Denver Center
Sat 01:52:35 PM 38.3189 -107.3747 74° East 432 497 35,000  Level Denver Center
Sat 01:53:36 PM 38.3492 -107.2333 75° East 433 498 35,000  Level Denver Center
Sat 01:54:38 PM 38.3792 -107.0942 75° East 431 496 35,000  Level Denver Center
Sat 01:55:40 PM 38.4219 -106.9561 68° East 422 486 35,000  Level Denver Center
Sat 01:56:42 PM 38.5208 -106.8281 45° Northeast 421 484 35,000  Level Denver Center
Sat 01:57:44 PM 38.6014 -106.7233 45° Northeast 416 479 35,000  Level Denver Center
Sat 01:58:46 PM 38.6325 -106.5753 75° East 437 503 35,000  Level Denver Center
Sat 01:59:48 PM 38.6592 -106.4247 77° East 436 502 35,000  Level Denver Center
Sat 02:00:50 PM 38.6853 -106.2747 77° East 434 499 35,000  Level Denver Center
Sat 02:01:52 PM 38.7142 -106.1161 77° East 433 498 35,000  Level Denver Center
Sat 02:02:53 PM 38.7392 -105.9678 78° East 429 494 35,000  Level Denver Center
Sat 02:03:55 PM 38.7697 -105.7869 78° East 434 499 35,000  Level Denver Center
Sat 02:04:57 PM 38.7950 -105.6361 78° East 435 501 35,000  Level Denver Center
Sat 02:05:59 PM 38.8200 -105.4881 78° East 429 494 35,000  Level Denver Center
Sat 02:07:01 PM 38.8447 -105.3350 78° East 437 503 35,000  Level Denver Center
Sat 02:08:03 PM 38.8700 -105.1864 78° East 431 496 35,000  Level Denver Center
Sat 02:09:04 PM 38.8933 -105.0372 79° East 430 495 35,000  Level Denver Center
Sat 02:10:06 PM 38.9228 -104.8597 78° East 426 490 35,000  Level Denver Center
Sat 02:11:08 PM 38.9469 -104.7125 78° East 426 490 35,000  Level Denver Center
Sat 02:12:10 PM 38.9706 -104.5661 78° East 423 487 35,000  Level Denver Center
Sat 02:13:12 PM 38.9931 -104.4189 79° East 423 487 35,000  Level Denver Center
Sat 02:14:13 PM 39.0156 -104.2717 79° East 423 487 35,000  Level Denver Center
Sat 02:15:15 PM 39.0389 -104.1219 79° East 428 493 35,000  Level Denver Center
Sat 02:16:17 PM 39.0675 -103.9403 78° East 434 499 35,000  Level Denver Center
Sat 02:17:18 PM 39.0906 -103.7894 79° East 433 498 35,000  Level Denver Center
Sat 02:18:20 PM 39.1128 -103.6392 79° East 432 497 35,000  Level Denver Center
Sat 02:19:22 PM 39.1356 -103.4856 79° East 437 503 35,000  Level Denver Center
Sat 02:20:24 PM 39.1592 -103.3331 79° East 438 504 35,000  Level Denver Center
Sat 02:21:25 PM 39.1822 -103.1786 79° East 441 507 35,000  Level Denver Center
Sat 02:22:27 PM 39.2089 -102.9894 80° East 446 513 35,000  Level Denver Center
Sat 02:23:29 PM 39.2319 -102.8331 79° East 447 514 35,000  Level Denver Center
Sat 02:24:30 PM 39.2508 -102.6864 81° East 449 517 35,000  Level Denver Center
Sat 02:25:32 PM 39.2761 -102.5067 80° East 455 524 35,000  Level Denver Center
Sat 02:26:33 PM 39.2986 -102.3506 79° East 459 528 35,000  Level Denver Center
Sat 02:27:35 PM 39.3228 -102.1681 80° East 462 532 35,000  Level Denver Center
Sat 02:28:37 PM 39.3458 -102.0067 79° East 461 531 35,000  Level Denver Center
Sat 02:29:38 PM 39.3664 -101.8517 80° East 460 529 35,000  Level Denver Center
Sat 02:30:40 PM 39.3906 -101.6703 80° East 458 527 35,000  Level Denver Center
Sat 02:31:42 PM 39.4181 -101.5158 77° East 462 532 35,000  Level Denver Center
Sat 02:32:43 PM 39.4486 -101.3364 78° East 460 529 35,000  Level Denver Center
Sat 02:33:45 PM 39.4756 -101.1806 77° East 463 533 35,000  Level Denver Center
Sat 02:34:47 PM 39.5014 -101.0244 78° East 464 534 35,000  Level Denver Center
Sat 02:35:48 PM 39.5325 -100.8386 78° East 473 544 35,000  Level Denver Center
Sat 02:36:50 PM 39.5583 -100.6817 78° East 469 540 35,000  Level Denver Center
Sat 02:37:51 PM 39.5892 -100.4933 78° East 475 547 35,000  Level Denver Center
Sat 02:38:53 PM 39.6158 -100.3322 78° East 479 551 35,000  Level Denver Center
Sat 02:39:55 PM 39.6464 -100.1406 78° East 485 558 35,000  Level Denver Center
Sat 02:40:56 PM 39.6717 -99.9764 79° East 486 559 35,000  Level Denver Center
Sat 02:41:58 PM 39.6992 -99.8036 78° East 490 564 35,000  Level Denver Center
Sat 02:42:59 PM 39.7256 -99.6303 79° East 490 564 35,000  Level Denver Center
Sat 02:44:01 PM 39.7528 -99.4564 78° East 491 565 35,000  Level Denver Center
Sat 02:45:03 PM 39.7850 -99.2461 79° East 494 568 35,000  Level Denver Center
Sat 02:46:04 PM 39.8114 -99.0669 79° East 504 580 35,000  Level Denver Center
Sat 02:47:06 PM 39.8378 -98.8894 79° East 503 579 35,000  Level Denver Center
Sat 02:47:36 PM 39.8481 -98.8189 79° East 503 579 35,000  Level Minneapolis Center
Sat 02:48:38 PM 39.8806 -98.6017 79° East 508 585 35,000  Level Minneapolis Center
Sat 02:49:39 PM 39.9061 -98.4203 80° East 510 587 35,000  Level Minneapolis Center
Sat 02:50:41 PM 39.9311 -98.2397 80° East 509 586 35,000  Level Minneapolis Center
Sat 02:51:43 PM 39.9569 -98.0581 79° East 510 587 35,000  Level Minneapolis Center
Sat 02:52:45 PM 39.9814 -97.8753 80° East 512 589 35,000  Level Minneapolis Center
Sat 02:53:46 PM 40.0075 -97.6928 79° East 513 590 35,000  Level Minneapolis Center
Sat 02:54:48 PM 40.0322 -97.5097 80° East 513 590 35,000  Level Minneapolis Center
Sat 02:55:49 PM 40.0578 -97.3189 80° East 507 583 35,000 341 Level Minneapolis Center
Sat 02:56:51 PM 40.0806 -97.1375 81° East 507 583 35,700 871 Climbing Minneapolis Center
Sat 02:57:53 PM 40.1053 -96.9586 80° East 505 581 36,800 634 Climbing Minneapolis Center
Sat 02:58:54 PM 40.1322 -96.7425 81° East 504 580 37,000 98 Climbing Minneapolis Center
Sat 02:59:56 PM 40.1558 -96.5614 80° East 506 582 37,000  Level Minneapolis Center
Sat 03:00:58 PM 40.1786 -96.3814 81° East 506 582 37,000  Level Minneapolis Center
Sat 03:01:59 PM 40.2014 -96.2022 80° East 502 578 37,000  Level Minneapolis Center
Sat 03:03:01 PM 40.2331 -96.0247 77° East 503 579 37,000  Level Minneapolis Center
Sat 03:04:02 PM 40.2667 -95.8478 76° East 504 580 37,000  Level Minneapolis Center
Sat 03:05:04 PM 40.2986 -95.6719 77° East 503 579 37,000  Level Minneapolis Center
Sat 03:06:05 PM 40.3361 -95.4628 77° East 499 574 37,000  Level Minneapolis Center
Sat 03:07:07 PM 40.3686 -95.2864 76° East 498 573 37,000  Level Minneapolis Center
Sat 03:08:08 PM 40.4008 -95.1081 77° East 500 575 37,000  Level Minneapolis Center
Sat 03:09:10 PM 40.4319 -94.9297 77° East 502 578 37,000  Level Minneapolis Center
Sat 03:10:11 PM 40.4622 -94.7522 77° East 502 578 37,000  Level Minneapolis Center
Sat 03:11:13 PM 40.4933 -94.5750 77° East 501 577 37,000  Level Minneapolis Center
Sat 03:12:14 PM 40.5228 -94.4019 77° East 500 575 37,000  Level Minneapolis Center
Sat 03:13:16 PM 40.5533 -94.2289 77° East 493 567 37,000  Level Minneapolis Center
Sat 03:14:17 PM 40.5875 -94.0219 78° East 489 563 37,000  Level Minneapolis Center
Sat 03:15:19 PM 40.6136 -93.8508 79° East 484 557 37,000  Level Minneapolis Center
Sat 03:16:20 PM 40.6389 -93.6794 79° East 482 555 37,000  Level Minneapolis Center
Sat 03:17:22 PM 40.6631 -93.5075 79° East 480 552 37,000  Level Minneapolis Center
Sat 03:18:23 PM 40.6886 -93.3342 79° East 484 557 37,000  Level Minneapolis Center
Sat 03:19:23 PM 40.7139 -93.1583 79° East 484 557 37,000  Level Chicago Center
Sat 03:20:23 PM 40.7378 -92.9850 80° East 483 556 37,000  Level Chicago Center
Sat 03:21:25 PM 40.7633 -92.8111 79° East 483 556 37,000 -242 Level Chicago Center
Sat 03:22:27 PM 40.7867 -92.6358 80° East 485 558 36,500 -823 Descending Chicago Center
Sat 03:23:29 PM 40.8153 -92.4275 80° East 482 555 35,300 -1,073 Descending Chicago Center
Sat 03:24:30 PM 40.8375 -92.2544 80° East 480 552 34,300 -976 Descending Chicago Center
Sat 03:25:32 PM 40.8603 -92.0806 80° East 481 554 33,300 -919 Descending Chicago Center
Sat 03:26:34 PM 40.8836 -91.9042 80° East 488 562 32,400 -976 Descending Chicago Center
Sat 03:27:35 PM 40.9058 -91.7300 80° East 484 557 31,300 -1,220 Descending Chicago Center
Sat 03:28:37 PM 40.9272 -91.5617 80° East 470 541 29,900 -1,452 Descending Chicago Center
Sat 03:29:39 PM 40.9475 -91.3953 81° East 463 533 28,300 -1,366 Descending Chicago Center
Sat 03:30:40 PM 40.9722 -91.2006 80° East 459 528 27,100 -1,073 Descending Chicago Center
Sat 03:31:42 PM 40.9931 -91.0361 80° East 456 525 26,100 -968 Descending Chicago Center
Sat 03:32:44 PM 41.0122 -90.8742 81° East 448 516 25,100 -1,122 Descending Chicago Center
Sat 03:33:45 PM 41.0317 -90.7122 81° East 445 512 23,800 -1,024 Descending Chicago Center
Sat 03:34:47 PM 41.0589 -90.5397 78° East 470 541 23,000 -387 Descending Chicago Center
Sat 03:35:49 PM 41.0997 -90.3664 73° East 487 560 23,000  Level Chicago Center
Sat 03:36:50 PM 41.1392 -90.1936 73° East 485 558 23,000 -634 Level Chicago Center
Sat 03:37:52 PM 41.1786 -90.0192 73° East 489 563 21,700 -2,226 Descending Chicago Center
Sat 03:38:54 PM 41.2247 -89.8144 73° East 480 552 18,400 -2,927 Descending Chicago Center
Sat 03:39:55 PM 41.2603 -89.6556 73° East 452 520 15,700 -1,659 Descending Chicago Center
Sat 03:40:57 PM 41.2931 -89.5089 73° East 420 483 15,000 -339 Descending Chicago Center
Sat 03:41:59 PM 41.3258 -89.3589 74° East 420 483 15,000 -683 Level Chicago Center
Sat 03:43:00 PM 41.3583 -89.2097 74° East 420 483 13,600 -1,902 Descending Chicago Center
Sat 03:44:02 PM 41.3897 -89.0597 74° East 410 472 11,100 -1,645 Descending Chicago Center
Sat 03:45:04 PM 41.4183 -88.9250 74° East 382 440 10,200 -976 Descending Chicago Center
Sat 03:46:05 PM 41.4439 -88.8061 74° East 341 392 9,100 -1,220 Descending Chicago Center
Sat 03:47:07 PM 41.4669 -88.6931 75° East 323 372 7,700 -1,016 Descending Chicago Center
Sat 03:48:09 PM 41.4939 -88.5664 74° East 303 349 7,000 -341 Descending Chicago Center
Sat 03:49:10 PM 41.5156 -88.4636 74° East 292 336 7,000 -98 Level Chicago Center
Sat 03:50:12 PM 41.5442 -88.3639 69° East 294 338 6,800 -823 Descending Chicago Center
Sat 03:51:14 PM 41.5886 -88.2708 57° Northeast 296 341 5,300 -1,220 Descending Chicago Center
Sat 03:52:15 PM 41.6186 -88.1744 67° East 287 330 4,300 -1,122 Descending Chicago Center
Sat 03:53:17 PM 41.6219 -88.0714 87° East 280 322 3,000 -629 Descending Chicago Center
Sat 03:54:19 PM 41.6281 -87.9731 85° East 272 313 3,000  Level Chicago Center
Sat 03:55:21 PM 41.6333 -87.8781 86° East 264 304 3,000 -244 Level Chicago Center
Sat 03:56:22 PM 41.6406 -87.7836 84° East 246 283 2,500 -244 Descending Chicago Center
Sat 03:57:24 PM 41.6900 -87.7322 38° Northeast 233 268 2,500 -194 Level Chicago Center
Sat 03:58:26 PM 41.7506 -87.7061 18° North 231 266 2,100 -387 Descending Chicago Center
Sat 03:59:28 PM 41.7986 -87.6839 19° North 202 232 1,700 -488 Descending Chicago Center
Sat 04:00:29 PM 41.8083 -87.7228 289° West 172 198 1,100 -390 Descending Chicago Center
Sat 04:01:31 PM 41.7881 -87.7606 234° Southwest 164 189 900 -194 Descending Chicago Center

Login

Don't have an account? Register now (free) for customized features, flight alerts, and more!